Time;durP1;ratioP1;P1;durP2;ratioP2;P2;SDS_P1;SDS_P2;PMS_P1;PMS_P2;Temp;Humidity;BMP_temperature;BMP_pressure;BME280_temperature;BME280_humidity;BME280_pressure;Samples;Min_cycle;Max_cycle;Signal;HPM_P1;HPM_P2
2023/01/12 00:02:22;;;;;;;34.40;15.30;;;;;;;-3.35;83.04;102051.48;107643;1254;97880;-60
2023/01/12 00:04:51;;;;;;;36.90;15.80;;;;;;;-3.32;82.90;102038.64;107573;1254;97837;-61
2023/01/12 00:07:20;;;;;;;31.00;14.30;;;;;;;-3.31;83.28;102044.41;107556;1254;111316;-60
2023/01/12 00:09:48;;;;;;;39.60;15.40;;;;;;;-3.30;83.14;102041.42;107584;1254;109954;-60
2023/01/12 00:12:16;;;;;;;36.40;14.70;;;;;;;-3.31;83.36;102040.02;107546;1254;109425;-60
2023/01/12 00:14:44;;;;;;;33.00;15.90;;;;;;;-3.32;82.98;102028.28;107529;1254;97857;-59
2023/01/12 00:17:15;;;;;;;36.00;14.80;;;;;;;-3.34;83.16;102026.73;107642;1254;97854;-60
2023/01/12 00:19:44;;;;;;;36.00;14.20;;;;;;;-3.36;83.10;102019.58;107705;1254;111604;-61
2023/01/12 00:22:12;;;;;;;41.50;13.70;;;;;;;-3.38;83.22;102013.80;107604;1254;110091;-60
2023/01/12 00:24:43;;;;;;;38.60;14.10;;;;;;;-3.40;83.09;102014.69;107566;1256;108123;-60
2023/01/12 00:27:15;;;;;;;39.40;14.70;;;;;;;-3.42;83.08;102006.48;107639;1254;97826;-59
2023/01/12 00:29:43;;;;;;;34.40;14.10;;;;;;;-3.44;83.58;102002.10;107645;1254;97819;-60
2023/01/12 00:32:19;;;;;;;34.70;13.10;;;;;;;-3.47;83.45;101997.92;107664;1255;110609;-60
2023/01/12 00:34:47;;;;;;;31.70;13.70;;;;;;;-3.47;83.51;101999.32;107586;1256;109275;-59
2023/01/12 00:37:16;;;;;;;37.50;14.10;;;;;;;-3.49;83.65;102008.80;107609;1254;108188;-60
2023/01/12 00:39:44;;;;;;;43.20;14.70;;;;;;;-3.49;83.74;101998.64;107562;1257;98131;-61
2023/01/12 00:45:21;;;;;;;29.00;12.60;;;;;;;-3.49;84.01;102001.63;107580;1254;111934;-59
2023/01/12 00:47:50;;;;;;;31.90;13.30;;;;;;;-3.53;83.72;102013.05;107592;1254;110110;-60
2023/01/12 00:50:19;;;;;;;31.70;14.20;;;;;;;-3.54;83.78;102022.02;107547;1253;108855;-60
2023/01/12 00:52:47;;;;;;;35.30;13.60;;;;;;;-3.55;83.78;102027.11;107571;1253;97813;-61
2023/01/12 00:55:15;;;;;;;33.90;13.90;;;;;;;-3.53;84.09;102024.45;107594;1253;98902;-61
2023/01/12 00:57:44;;;;;;;32.30;13.40;;;;;;;-3.54;84.06;102023.25;107584;1253;110763;-60
2023/01/12 01:00:14;;;;;;;28.50;12.50;;;;;;;-3.55;84.08;102020.98;107637;1253;109907;-60
2023/01/12 01:02:42;;;;;;;26.20;11.70;;;;;;;-3.51;83.99;102015.14;107670;1254;108823;-61
2023/01/12 01:05:10;;;;;;;37.30;12.00;;;;;;;-3.51;84.28;102011.29;107531;1254;97819;-60
2023/01/12 01:07:39;;;;;;;34.30;11.90;;;;;;;-3.48;84.23;102003.53;107550;1254;97720;-59
2023/01/12 01:10:09;;;;;;;32.10;13.20;;;;;;;-3.44;84.21;102005.08;107577;1253;112219;-59
2023/01/12 01:12:38;;;;;;;25.00;11.10;;;;;;;-3.45;84.23;102001.92;107570;1254;110022;-59
2023/01/12 01:15:07;;;;;;;22.80;11.10;;;;;;;-3.45;83.90;102009.12;107551;1253;108728;-60
2023/01/12 01:17:35;;;;;;;25.80;12.20;;;;;;;-3.45;84.25;102003.87;107639;1254;97925;-59
2023/01/12 01:20:04;;;;;;;24.20;11.30;;;;;;;-3.46;84.10;102000.20;107597;1254;98370;-61
2023/01/12 01:22:33;;;;;;;28.50;12.40;;;;;;;-3.47;84.35;101997.74;107656;1254;112305;-59
2023/01/12 01:25:01;;;;;;;30.20;11.10;;;;;;;-3.50;84.28;101999.17;107610;1253;109858;-59
2023/01/12 01:27:29;;;;;;;31.50;11.50;;;;;;;-3.51;84.29;101989.89;107531;1253;106995;-60
2023/01/12 01:29:58;;;;;;;23.50;11.10;;;;;;;-3.50;84.48;101991.82;107529;1254;97851;-60
2023/01/12 01:32:26;;;;;;;36.70;12.50;;;;;;;-3.52;84.32;101995.52;107588;1254;98382;-61
2023/01/12 01:34:54;;;;;;;33.10;12.70;;;;;;;-3.54;84.70;101987.64;107669;1254;111301;-59
2023/01/12 01:37:23;;;;;;;28.40;11.70;;;;;;;-3.53;84.70;101987.27;107630;1254;108973;-60
2023/01/12 01:39:51;;;;;;;27.00;12.10;;;;;;;-3.52;84.61;101986.56;107503;1253;108126;-63
2023/01/12 01:42:29;;;;;;;32.60;10.40;;;;;;;-3.56;84.28;101989.77;107503;1254;97838;-60
2023/01/12 01:45:00;;;;;;;24.90;10.80;;;;;;;-3.56;84.55;101983.64;107554;1254;98372;-61
2023/01/12 01:47:38;;;;;;;29.90;12.20;;;;;;;-3.57;84.42;101981.54;107580;1253;112091;-59
2023/01/12 01:50:21;;;;;;;24.50;10.30;;;;;;;-3.58;84.64;101984.70;107630;1254;109204;-61
2023/01/12 01:52:57;;;;;;;33.50;10.30;;;;;;;-3.59;85.02;101982.63;107565;1254;107823;-59
2023/01/12 01:55:32;;;;;;;26.50;10.10;;;;;;;-3.62;84.70;101982.81;107601;1254;97865;-60
2023/01/12 01:58:15;;;;;;;27.20;10.80;;;;;;;-3.63;84.68;101985.97;107530;1254;97701;-60
2023/01/12 02:00:45;;;;;;;25.30;11.40;;;;;;;-3.60;84.55;101994.55;107461;1254;111269;-61
2023/01/12 02:03:15;;;;;;;28.10;11.40;;;;;;;-3.60;84.89;101996.11;107475;1253;108895;-60
2023/01/12 02:05:47;;;;;;;23.60;9.70;;;;;;;-3.60;84.73;101987.52;107526;1254;108784;-60
2023/01/12 02:08:22;;;;;;;25.80;10.00;;;;;;;-3.61;84.42;101986.13;107499;1254;97837;-60
2023/01/12 02:10:52;;;;;;;23.40;9.80;;;;;;;-3.64;84.58;101978.46;107570;1254;97729;-60
2023/01/12 02:16:27;;;;;;;24.90;10.00;;;;;;;-3.67;84.25;101971.81;107581;1254;109955;-60
2023/01/12 02:19:05;;;;;;;22.10;9.90;;;;;;;-3.67;84.22;101975.31;107608;1253;108827;-62
2023/01/12 02:21:52;;;;;;;25.70;10.40;;;;;;;-3.64;84.23;101971.09;107449;1254;97715;-63
2023/01/12 02:24:34;;;;;;;30.40;10.60;;;;;;;-3.65;84.31;101968.99;107615;1254;97845;-60
2023/01/12 02:27:02;;;;;;;23.30;10.10;;;;;;;-3.68;84.07;101961.65;107635;1255;111826;-59
2023/01/12 02:29:33;;;;;;;35.10;10.20;;;;;;;-3.69;84.34;101960.96;107680;1254;109229;-59
2023/01/12 02:32:11;;;;;;;23.50;10.20;;;;;;;-3.71;84.38;101963.98;107551;1252;108125;-59
2023/01/12 02:35:18;;;;;;;31.70;11.60;;;;;;;-3.79;84.00;101961.75;107536;1254;97825;-60
2023/01/12 02:37:58;;;;;;;26.90;11.20;;;;;;;-3.82;84.08;101961.62;107628;1256;97823;-59
2023/01/12 02:40:40;;;;;;;22.40;10.00;;;;;;;-3.84;84.25;101961.81;107593;1254;111301;-60
2023/01/12 02:43:29;;;;;;;22.50;10.60;;;;;;;-3.87;84.14;101961.31;107588;1253;110183;-59
2023/01/12 02:46:16;;;;;;;27.20;10.50;;;;;;;-3.92;83.93;101954.89;107734;1254;107430;-60
2023/01/12 02:48:54;;;;;;;26.40;12.00;;;;;;;-3.96;84.49;101955.44;107530;1256;97847;-61
2023/01/12 02:51:38;;;;;;;28.40;11.50;;;;;;;-4.00;84.57;101958.46;107598;1254;97771;-61
2023/01/12 02:54:11;;;;;;;25.60;11.60;;;;;;;-4.04;84.80;101952.17;107702;1254;112006;-61
2023/01/12 02:56:49;;;;;;;34.40;12.70;;;;;;;-4.07;84.92;101951.49;107649;1254;110469;-59
2023/01/12 02:59:27;;;;;;;26.70;11.70;;;;;;;-4.07;84.96;101948.17;107394;1254;108332;-61
2023/01/12 03:02:01;;;;;;;31.60;12.20;;;;;;;-4.05;85.18;101955.52;107576;1254;98007;-59
2023/01/12 03:04:31;;;;;;;34.80;11.10;;;;;;;-4.02;85.16;101958.99;107659;1254;97728;-60
2023/01/12 03:06:59;;;;;;;25.30;10.50;;;;;;;-3.95;85.56;101967.87;107582;1254;112258;-60
2023/01/12 03:09:40;;;;;;;21.80;10.90;;;;;;;-3.90;85.10;101959.08;107592;1253;109208;-60
2023/01/12 03:12:17;;;;;;;35.10;12.10;;;;;;;-3.87;85.41;101957.64;107659;1252;108681;-60
2023/01/12 03:14:48;;;;;;;26.90;12.00;;;;;;;-3.84;85.49;101952.34;107530;1254;97834;-60
2023/01/12 03:17:35;;;;;;;26.70;11.00;;;;;;;-3.81;85.16;101950.03;107584;1254;98495;-61
2023/01/12 03:20:15;;;;;;;27.40;10.80;;;;;;;-3.78;85.27;101949.30;107620;1254;111139;-61
2023/01/12 03:22:46;;;;;;;29.80;11.90;;;;;;;-3.75;85.14;101951.73;107652;1256;109779;-59
2023/01/12 03:25:17;;;;;;;31.40;10.80;;;;;;;-3.70;85.39;101947.64;107581;1254;108483;-60
2023/01/12 03:27:50;;;;;;;29.40;11.40;;;;;;;-3.66;85.26;101940.60;107561;1254;97705;-60
2023/01/12 03:30:23;;;;;;;23.30;10.20;;;;;;;-3.64;84.81;101940.95;107567;1254;97845;-60
2023/01/12 03:32:52;;;;;;;27.90;12.50;;;;;;;-3.60;85.00;101940.71;107616;1254;111561;-60
2023/01/12 03:35:26;;;;;;;31.90;12.90;;;;;;;-3.55;84.94;101942.93;107641;1253;110664;-61
2023/01/12 03:38:06;;;;;;;22.70;9.80;;;;;;;-3.50;84.78;101941.84;107366;1254;107847;-61
2023/01/12 03:40:42;;;;;;;41.80;12.50;;;;;;;-3.44;84.42;101951.05;107572;1254;97885;-62
2023/01/12 03:43:20;;;;;;;26.30;11.60;;;;;;;-3.38;84.47;101957.83;107494;1254;97740;-60
2023/01/12 03:46:18;;;;;;;25.30;11.40;;;;;;;-3.37;84.21;101957.65;107519;1253;112227;-60
2023/01/12 03:49:05;;;;;;;26.30;12.40;;;;;;;-3.37;84.04;101950.81;107615;1253;110081;-60
2023/01/12 03:51:39;;;;;;;30.70;11.10;;;;;;;-3.33;84.12;101954.08;107542;1254;108841;-60
2023/01/12 03:54:10;;;;;;;33.90;13.50;;;;;;;-3.31;83.84;101951.25;107629;1252;98330;-61
2023/01/12 03:56:40;;;;;;;32.20;11.70;;;;;;;-3.29;83.94;101951.42;107615;1253;97818;-60
2023/01/12 03:59:09;;;;;;;33.10;12.10;;;;;;;-3.31;83.57;101950.04;107619;1254;111108;-58
2023/01/12 04:01:37;;;;;;;35.20;13.00;;;;;;;-3.37;83.59;101950.10;107696;1254;109876;-60
2023/01/12 04:04:06;;;;;;;25.60;11.50;;;;;;;-3.42;83.39;101951.02;107653;1254;106792;-59
2023/01/12 04:06:34;;;;;;;36.60;12.70;;;;;;;-3.45;83.80;101961.58;107670;1254;97842;-60
2023/01/12 04:09:03;;;;;;;31.40;12.30;;;;;;;-3.49;83.55;101967.77;107610;1254;98389;-59
2023/01/12 04:14:18;;;;;;;34.00;13.20;;;;;;;-3.51;83.61;101954.11;107610;1253;109770;-60
2023/01/12 04:16:46;;;;;;;31.50;12.70;;;;;;;-3.55;83.82;101954.16;107617;1253;108885;-58
2023/01/12 04:19:14;;;;;;;38.80;12.40;;;;;;;-3.59;83.63;101946.48;107614;1252;97837;-60
2023/01/12 04:24:30;;;;;;;33.00;11.50;;;;;;;-3.65;84.10;101959.17;107624;1252;110472;-60
2023/01/12 04:26:59;;;;;;;35.20;13.30;;;;;;;-3.65;83.98;101961.98;107676;1254;109736;-59
2023/01/12 04:29:27;;;;;;;32.90;13.10;;;;;;;-3.64;83.58;101952.15;107574;1253;107730;-60
2023/01/12 04:31:56;;;;;;;30.50;13.00;;;;;;;-3.62;83.92;101949.48;107618;1253;97868;-60
2023/01/12 04:34:24;;;;;;;44.60;14.60;;;;;;;-3.62;84.27;101956.16;107484;1253;97853;-60
2023/01/12 04:36:53;;;;;;;28.70;11.80;;;;;;;-3.62;84.22;101963.52;107627;1254;111345;-59
2023/01/12 04:39:21;;;;;;;37.10;12.90;;;;;;;-3.60;84.62;101960.34;107553;1253;109730;-61
2023/01/12 04:41:50;;;;;;;36.10;13.10;;;;;;;-3.57;84.49;101954.52;107567;1253;109058;-58
2023/01/12 04:44:19;;;;;;;40.80;14.80;;;;;;;-3.55;84.74;101952.06;107604;1253;97909;-60
2023/01/12 04:46:48;;;;;;;35.90;13.10;;;;;;;-3.51;84.35;101953.58;107629;1253;97739;-60
2023/01/12 04:49:16;;;;;;;28.50;12.30;;;;;;;-3.44;84.77;101956.67;107441;1253;112160;-60
2023/01/12 04:51:45;;;;;;;35.90;13.20;;;;;;;-3.38;84.48;101959.77;107439;1253;108611;-60
2023/01/12 04:54:13;;;;;;;34.10;13.80;;;;;;;-3.33;84.80;101966.19;107531;1252;108712;-59
2023/01/12 04:56:41;;;;;;;41.10;14.10;;;;;;;-3.29;84.43;101978.60;107581;1254;97922;-59
2023/01/12 04:59:10;;;;;;;41.50;14.30;;;;;;;-3.25;84.68;101985.75;107548;1252;98450;-60
2023/01/12 05:01:38;;;;;;;34.70;13.80;;;;;;;-3.22;84.55;101989.05;107555;1254;112820;-60
2023/01/12 05:04:07;;;;;;;39.40;15.10;;;;;;;-3.18;84.53;101989.53;107561;1253;110009;-62
2023/01/12 05:06:35;;;;;;;43.40;15.90;;;;;;;-3.17;84.31;101993.90;107675;1254;107876;-59
2023/01/12 05:11:51;;;;;;;37.00;14.50;;;;;;;-3.17;84.29;101986.52;107488;1254;97851;-60
2023/01/12 05:14:19;;;;;;;30.60;13.60;;;;;;;-3.16;84.22;101985.12;107631;1254;111757;-60
2023/01/12 05:16:48;;;;;;;44.00;15.00;;;;;;;-3.15;84.19;101984.23;107651;1254;109310;-61
2023/01/12 05:19:16;;;;;;;35.00;13.90;;;;;;;-3.14;83.82;101984.58;107579;1252;108144;-61
2023/01/12 05:21:44;;;;;;;43.20;14.50;;;;;;;-3.13;84.04;101989.83;107608;1254;97827;-60
2023/01/12 05:24:13;;;;;;;40.10;13.80;;;;;;;-3.13;84.03;101993.17;107537;1253;97871;-62
2023/01/12 05:26:41;;;;;;;37.00;14.30;;;;;;;-3.13;83.85;101999.48;107635;1254;111310;-61
2023/01/12 05:29:12;;;;;;;30.10;12.70;;;;;;;-3.12;83.92;102004.38;107594;1254;110154;-59
2023/01/12 05:31:41;;;;;;;35.00;13.30;;;;;;;-3.11;84.00;101993.48;107616;1255;107492;-60
2023/01/12 05:34:09;;;;;;;48.10;14.70;;;;;;;-3.09;83.98;101985.21;107569;1252;97844;-61
2023/01/12 05:36:38;;;;;;;37.20;14.20;;;;;;;-3.05;83.89;101988.15;107609;1254;98391;-60
2023/01/12 05:39:06;;;;;;;32.00;14.00;;;;;;;-3.04;84.06;101986.55;107570;1254;111695;-60
2023/01/12 05:41:35;;;;;;;44.60;13.80;;;;;;;-3.04;83.65;101984.79;107571;1253;110223;-60
2023/01/12 05:44:03;;;;;;;32.60;13.70;;;;;;;-3.02;83.95;101986.71;107539;1254;108336;-60
2023/01/12 05:46:38;;;;;;;39.60;13.70;;;;;;;-2.96;83.61;101991.39;107592;1254;97886;-60
2023/01/12 05:49:09;;;;;;;39.80;13.10;;;;;;;-2.92;83.80;102003.96;107490;1252;97730;-60
2023/01/12 05:51:38;;;;;;;41.00;15.10;;;;;;;-2.87;83.65;102008.29;107678;1253;112321;-60
2023/01/12 05:54:06;;;;;;;35.50;13.50;;;;;;;-2.86;83.52;102003.90;107561;1253;110157;-59
2023/01/12 05:56:34;;;;;;;38.00;13.80;;;;;;;-2.84;83.58;102008.77;107604;1254;107402;-60
2023/01/12 05:59:03;;;;;;;40.80;15.90;;;;;;;-2.78;83.74;101999.92;107567;1254;97823;-60
2023/01/12 06:01:31;;;;;;;44.30;15.40;;;;;;;-2.74;83.62;101997.25;107635;1255;97703;-60
2023/01/12 06:04:00;;;;;;;36.80;15.50;;;;;;;-2.70;83.67;101992.80;107594;1254;111116;-60
2023/01/12 06:06:30;;;;;;;56.00;17.60;;;;;;;-2.71;83.19;101990.88;107650;1254;108746;-60
2023/01/12 06:09:00;;;;;;;48.10;16.50;;;;;;;-2.72;82.91;101991.59;107582;1254;107606;-60
2023/01/12 06:14:16;;;;;;;36.20;15.20;;;;;;;-2.76;82.54;101985.51;107625;1253;97978;-60
2023/01/12 06:16:44;;;;;;;40.90;17.60;;;;;;;-2.80;82.19;101984.85;107618;1252;111873;-60
2023/01/12 06:19:12;;;;;;;51.20;15.30;;;;;;;-2.85;82.41;101988.60;107492;1252;109828;-60
2023/01/12 06:21:41;;;;;;;54.50;16.30;;;;;;;-2.89;82.47;102001.99;107528;1253;107721;-59
2023/01/12 06:24:09;;;;;;;39.00;14.30;;;;;;;-2.94;82.40;102004.35;107465;1253;97720;-60
2023/01/12 06:26:37;;;;;;;37.60;15.00;;;;;;;-3.00;82.44;102003.54;107413;1254;97744;-61
2023/01/12 06:29:06;;;;;;;36.60;15.10;;;;;;;-3.06;82.11;102011.52;107499;1254;112367;-60
2023/01/12 06:31:35;;;;;;;44.70;16.40;;;;;;;-3.14;82.29;102006.52;107514;1253;110235;-60
2023/01/12 06:34:06;;;;;;;41.90;14.60;;;;;;;-3.18;82.34;102003.39;107483;1253;106745;-60
2023/01/12 06:36:34;;;;;;;37.00;14.10;;;;;;;-3.23;82.33;102008.18;107485;1253;97824;-61
2023/01/12 06:39:04;;;;;;;42.80;14.70;;;;;;;-3.24;82.08;102015.05;107441;1253;97821;-60
2023/01/12 06:44:21;;;;;;;44.60;14.80;;;;;;;-3.27;82.21;102031.73;107549;1254;109401;-60
2023/01/12 06:46:50;;;;;;;50.00;16.60;;;;;;;-3.26;81.64;102034.88;107543;1253;108593;-60
2023/01/12 06:49:18;;;;;;;51.30;14.90;;;;;;;-3.25;82.18;102028.57;107559;1254;97905;-60
2023/01/12 06:51:50;;;;;;;48.00;15.00;;;;;;;-3.23;82.14;102021.18;107609;1254;97832;-61
2023/01/12 06:54:19;;;;;;;37.70;13.30;;;;;;;-3.19;81.86;102021.30;107591;1254;111949;-61
2023/01/12 06:56:47;;;;;;;35.10;14.20;;;;;;;-3.15;82.00;102032.67;107570;1253;109965;-60
2023/01/12 06:59:16;;;;;;;30.00;13.10;;;;;;;-3.13;81.71;102033.86;107593;1253;108208;-60
2023/01/12 07:01:44;;;;;;;30.20;11.40;;;;;;;-3.11;81.15;102035.61;107505;1254;97842;-60
2023/01/12 07:04:13;;;;;;;37.00;14.10;;;;;;;-3.11;81.23;102039.66;107492;1253;98017;-61
2023/01/12 07:06:41;;;;;;;36.10;14.10;;;;;;;-3.06;81.35;102035.03;107538;1253;111724;-61
2023/01/12 07:09:10;;;;;;;27.20;13.20;;;;;;;-3.05;81.25;102036.77;107522;1253;109710;-61
2023/01/12 07:11:38;;;;;;;35.90;12.40;;;;;;;-3.03;81.11;102032.55;107552;1254;107881;-61
2023/01/12 07:14:06;;;;;;;29.50;11.90;;;;;;;-3.03;80.97;102034.64;107490;1253;97918;-61
2023/01/12 07:16:36;;;;;;;30.70;12.60;;;;;;;-3.00;80.82;102041.10;107477;1256;97752;-60
2023/01/12 07:19:05;;;;;;;40.50;12.50;;;;;;;-2.91;80.86;102047.50;107538;1253;111733;-61
2023/01/12 07:21:33;;;;;;;23.60;10.60;;;;;;;-2.84;80.91;102052.50;107571;1254;109190;-60
2023/01/12 07:24:02;;;;;;;22.50;10.50;;;;;;;-2.80;80.39;102053.15;107502;1254;107665;-61
2023/01/12 07:26:30;;;;;;;38.10;12.90;;;;;;;-2.84;79.88;102051.27;107547;1252;97867;-60
2023/01/12 07:28:58;;;;;;;37.50;13.90;;;;;;;-2.87;79.86;102042.70;107422;1253;98378;-61
2023/01/12 07:31:27;;;;;;;34.10;12.90;;;;;;;-2.84;79.94;102047.05;107601;1253;112360;-61
2023/01/12 07:33:55;;;;;;;44.30;14.30;;;;;;;-2.81;79.55;102042.81;107548;1254;108840;-61
2023/01/12 07:36:24;;;;;;;33.00;14.70;;;;;;;-2.79;79.44;102024.54;107556;1254;107759;-62
2023/01/12 07:38:53;;;;;;;32.60;14.90;;;;;;;-2.75;79.79;102023.24;107610;1254;98569;-61
2023/01/12 07:44:08;;;;;;;37.90;13.40;;;;;;;-2.77;79.05;102043.45;107591;1256;111135;-60
2023/01/12 07:46:37;;;;;;;32.60;13.50;;;;;;;-2.76;79.34;102048.02;107551;1254;109071;-61
2023/01/12 07:49:05;;;;;;;29.60;12.70;;;;;;;-2.74;79.14;102031.83;107549;1254;108587;-61
2023/01/12 07:51:34;;;;;;;39.10;13.80;;;;;;;-2.69;79.20;102021.58;107544;1253;97815;-60
2023/01/12 07:54:02;;;;;;;38.40;14.10;;;;;;;-2.68;78.88;102035.61;107514;1256;97848;-61
2023/01/12 07:56:31;;;;;;;42.30;14.60;;;;;;;-2.72;78.17;102038.65;107553;1253;111527;-60
2023/01/12 07:59:00;;;;;;;29.60;14.80;;;;;;;-2.79;78.13;102031.20;107568;1252;107485;-59
2023/01/12 08:01:31;;;;;;;31.80;15.30;;;;;;;-2.86;77.81;102023.73;107609;1256;108974;-60
2023/01/12 08:03:59;;;;;;;29.90;13.60;;;;;;;-2.90;78.08;102020.44;107600;1256;97854;-61
2023/01/12 08:06:29;;;;;;;31.10;13.10;;;;;;;-2.87;78.69;102023.58;107553;1254;98480;-62
2023/01/12 08:08:58;;;;;;;26.60;12.80;;;;;;;-2.85;78.78;102027.05;107529;1256;111757;-60
2023/01/12 08:11:26;;;;;;;39.20;14.40;;;;;;;-2.81;79.28;102039.30;107594;1255;109717;-60
2023/01/12 08:13:56;;;;;;;31.90;13.00;;;;;;;-2.77;79.26;102046.08;107521;1252;108306;-61
2023/01/12 08:16:30;;;;;;;52.40;15.30;;;;;;;-2.72;79.49;102051.66;107519;1254;97820;-61
2023/01/12 08:19:08;;;;;;;35.90;13.70;;;;;;;-2.67;79.62;102051.07;107567;1252;98356;-61
2023/01/12 08:21:44;;;;;;;42.00;13.40;;;;;;;-2.63;79.82;102054.52;107639;1253;112193;-61
2023/01/12 08:24:23;;;;;;;30.50;12.90;;;;;;;-2.58;79.75;102053.23;107532;1254;110111;-61
2023/01/12 08:26:55;;;;;;;47.70;11.70;;;;;;;-2.53;79.52;102056.14;107581;1254;109343;-61
2023/01/12 08:29:32;;;;;;;29.10;12.40;;;;;;;-2.46;79.50;102049.56;107539;1253;97842;-61
2023/01/12 08:32:08;;;;;;;37.20;14.10;;;;;;;-2.33;79.59;102045.50;107449;1254;97885;-60
2023/01/12 08:34:45;;;;;;;41.60;14.60;;;;;;;-2.18;79.72;102049.34;107484;1254;110708;-61
2023/01/12 08:37:17;;;;;;;39.10;16.70;;;;;;;-2.09;79.36;102057.83;107583;1254;110155;-61
2023/01/12 08:39:46;;;;;;;33.00;14.60;;;;;;;-2.04;79.22;102056.53;107584;1254;108589;-61
2023/01/12 08:42:14;;;;;;;33.60;14.00;;;;;;;-1.99;78.79;102049.94;107596;1254;97861;-60
2023/01/12 08:44:44;;;;;;;26.30;10.90;;;;;;;-1.95;78.25;102047.59;107447;1253;98406;-60
2023/01/12 08:47:21;;;;;;;27.80;12.40;;;;;;;-1.97;77.86;102047.98;107510;1253;113133;-60
2023/01/12 08:49:49;;;;;;;28.40;11.40;;;;;;;-1.93;77.81;102044.55;107518;1253;110018;-60
2023/01/12 08:52:18;;;;;;;28.10;12.30;;;;;;;-1.94;77.31;102053.90;107472;1253;107799;-60
2023/01/12 08:54:46;;;;;;;36.10;11.20;;;;;;;-1.95;76.95;102059.71;107463;1257;98181;-60
2023/01/12 08:57:15;;;;;;;24.00;10.80;;;;;;;-1.98;76.54;102055.89;107490;1253;97825;-60
2023/01/12 08:59:44;;;;;;;29.10;10.50;;;;;;;-1.95;77.46;102060.60;107491;1253;112054;-59
2023/01/12 09:02:14;;;;;;;23.70;10.30;;;;;;;-1.87;77.19;102072.42;107507;1253;109941;-61
2023/01/12 09:04:44;;;;;;;25.30;10.10;;;;;;;-1.82;76.78;102080.98;107606;1254;108881;-62
2023/01/12 09:07:12;;;;;;;25.20;12.00;;;;;;;-1.77;77.01;102070.69;107546;1252;98085;-61
2023/01/12 09:09:41;;;;;;;22.40;9.90;;;;;;;-1.72;77.04;102075.72;107633;1254;97746;-60
2023/01/12 09:12:09;;;;;;;28.00;10.80;;;;;;;-1.74;77.33;102066.58;107613;1256;111404;-61
2023/01/12 09:14:37;;;;;;;23.30;10.60;;;;;;;-1.72;77.45;102056.71;107573;1253;109325;-61
2023/01/12 09:17:07;;;;;;;24.60;9.50;;;;;;;-1.67;77.44;102060.85;107559;1256;107867;-60
2023/01/12 09:19:35;;;;;;;22.20;10.10;;;;;;;-1.63;77.42;102063.42;107519;1256;97830;-61
2023/01/12 09:22:03;;;;;;;19.90;9.20;;;;;;;-1.62;77.54;102060.08;107563;1254;97704;-61
2023/01/12 09:24:32;;;;;;;22.80;12.10;;;;;;;-1.56;77.71;102050.81;107595;1253;113091;-61
2023/01/12 09:27:00;;;;;;;28.90;13.70;;;;;;;-1.44;77.75;102050.96;107585;1254;110191;-61
2023/01/12 09:29:28;;;;;;;19.90;10.60;;;;;;;-1.37;77.84;102053.98;107593;1254;107714;-61
2023/01/12 09:31:57;;;;;;;18.10;9.80;;;;;;;-1.31;77.68;102056.71;107562;1254;97816;-60
2023/01/12 09:34:26;;;;;;;26.50;11.30;;;;;;;-1.25;78.14;102049.39;107503;1253;97806;-60
2023/01/12 09:36:55;;;;;;;21.70;9.60;;;;;;;-1.18;77.63;102041.70;107561;1254;112302;-60
2023/01/12 09:39:27;;;;;;;24.10;10.10;;;;;;;-1.14;77.46;102042.86;107415;1253;109368;-60
2023/01/12 09:47:56;;;;;;;27.50;10.80;;;;;;;-1.04;76.90;102031.57;107486;1253;98427;-61
2023/01/12 09:50:30;;;;;;;23.50;9.90;;;;;;;-1.07;77.04;102027.57;107482;1254;111075;-61
2023/01/12 09:53:09;;;;;;;19.10;9.00;;;;;;;-1.02;77.19;102020.08;107474;1253;109544;-60
2023/01/12 09:55:50;;;;;;;27.40;11.90;;;;;;;-0.95;77.15;102018.17;107480;1253;108640;-60
2023/01/12 09:58:29;;;;;;;21.70;11.00;;;;;;;-0.85;76.89;102009.33;107456;1253;97808;-61
2023/01/12 10:01:00;;;;;;;30.90;13.00;;;;;;;-0.74;76.87;102005.05;107528;1253;98515;-61
2023/01/12 10:03:37;;;;;;;32.40;12.30;;;;;;;-0.70;76.71;102003.02;107517;1253;110744;-59
2023/01/12 10:06:13;;;;;;;21.60;10.30;;;;;;;-0.66;76.64;102001.36;107552;1253;110153;-60
2023/01/12 10:08:43;;;;;;;19.30;9.90;;;;;;;-0.65;76.30;102004.33;107465;1253;108315;-60
2023/01/12 10:11:39;;;;;;;35.40;12.20;;;;;;;-0.65;76.67;102000.27;107474;1253;97849;-60
2023/01/12 10:14:32;;;;;;;30.80;15.20;;;;;;;-0.59;77.07;101992.94;107544;1253;98387;-62
2023/01/12 10:17:24;;;;;;;30.70;14.00;;;;;;;-0.58;76.81;101984.98;107532;1253;112074;-60
2023/01/12 10:20:13;;;;;;;38.30;14.80;;;;;;;-0.58;76.72;101983.73;107487;1257;110296;-60
2023/01/12 10:22:47;;;;;;;30.10;14.30;;;;;;;-0.61;76.82;101980.63;107304;1253;107719;-61
2023/01/12 10:25:28;;;;;;;31.20;13.30;;;;;;;-0.56;76.88;101982.30;107471;1253;97784;-60
2023/01/12 10:27:59;;;;;;;23.90;11.80;;;;;;;-0.53;76.83;101986.44;107585;1254;98386;-62
2023/01/12 10:30:37;;;;;;;30.10;11.60;;;;;;;-0.51;76.97;101990.28;107616;1254;112472;-60
2023/01/12 10:33:15;;;;;;;26.30;11.30;;;;;;;-0.47;76.85;101981.20;107475;1253;109738;-61
2023/01/12 10:35:58;;;;;;;25.30;10.80;;;;;;;-0.52;76.72;101980.95;107527;1253;108939;-61
2023/01/12 10:38:30;;;;;;;26.20;11.70;;;;;;;-0.62;76.38;101986.13;107557;1254;98487;-61
2023/01/12 10:41:18;;;;;;;22.60;11.70;;;;;;;-0.65;76.80;101988.48;107540;1253;98552;-61
2023/01/12 10:44:06;;;;;;;30.80;13.10;;;;;;;-0.63;77.10;101978.05;106979;1253;746579;-61
2023/01/12 10:46:35;;;;;;;30.00;13.60;;;;;;;-0.63;77.11;101965.17;107611;1253;110078;-62
2023/01/12 10:49:17;;;;;;;23.70;12.00;;;;;;;-0.64;76.96;101966.41;107581;1256;108143;-59
2023/01/12 10:51:53;;;;;;;29.60;13.20;;;;;;;-0.67;76.89;101960.86;107610;1254;97899;-61
2023/01/12 10:54:26;;;;;;;30.10;13.10;;;;;;;-0.65;76.91;101964.70;107494;1254;98402;-60
2023/01/12 10:57:03;;;;;;;27.00;11.50;;;;;;;-0.60;77.10;101961.05;107579;1254;111923;-61
2023/01/12 10:59:34;;;;;;;25.80;14.40;;;;;;;-0.53;76.92;101945.73;107598;1254;109811;-61
2023/01/12 11:02:07;;;;;;;163.60;49.20;;;;;;;-0.49;76.92;101931.38;107540;1254;108205;-62
2023/01/12 11:04:45;;;;;;;51.30;21.80;;;;;;;-0.41;76.88;101937.71;107572;1252;97857;-60
2023/01/12 11:07:21;;;;;;;31.70;14.90;;;;;;;-0.39;76.74;101952.09;107579;1253;98536;-60
2023/01/12 11:09:49;;;;;;;30.20;14.00;;;;;;;-0.40;76.70;101942.45;107537;1253;112380;-61
2023/01/12 11:12:20;;;;;;;26.90;13.20;;;;;;;-0.40;76.68;101934.67;107606;1254;109995;-61
2023/01/12 11:15:16;;;;;;;24.00;11.80;;;;;;;-0.38;76.63;101934.46;107563;1252;111244;-61
2023/01/12 11:18:07;;;;;;;22.40;12.70;;;;;;;-0.41;76.33;101929.42;107593;1254;97831;-62
2023/01/12 11:20:42;;;;;;;32.00;13.60;;;;;;;-0.48;76.26;101928.17;107585;1252;97721;-62
2023/01/12 11:23:18;;;;;;;28.90;13.50;;;;;;;-0.54;76.37;101917.05;107580;1253;111268;-60
2023/01/12 11:25:49;;;;;;;33.70;13.10;;;;;;;-0.57;76.36;101917.46;107585;1254;109948;-60
2023/01/12 11:28:25;;;;;;;28.00;13.80;;;;;;;-0.63;76.49;101922.00;107593;1253;108415;-60
2023/01/12 11:31:15;;;;;;;27.40;14.80;;;;;;;-0.66;76.57;101915.90;107584;1254;97892;-61
2023/01/12 11:33:49;;;;;;;28.30;12.20;;;;;;;-0.65;76.80;101910.07;107552;1254;97944;-62
2023/01/12 11:36:19;;;;;;;;;;;;;;;-0.62;76.98;101904.91;107601;1254;111712;-59
2023/01/12 11:38:52;;;;;;;27.40;12.70;;;;;;;-0.58;77.21;101907.27;107610;1254;109158;-60
2023/01/12 11:41:39;;;;;;;25.80;12.00;;;;;;;-0.54;77.35;101909.98;107538;1254;107671;-60
2023/01/12 11:44:29;;;;;;;35.10;13.70;;;;;;;-0.44;77.57;101906.94;107548;1254;97867;-61
2023/01/12 11:47:09;;;;;;;26.00;12.30;;;;;;;-0.42;77.55;101908.65;107563;1253;97919;-60
2023/01/12 11:49:46;;;;;;;25.80;10.10;;;;;;;-0.36;77.82;101912.90;107498;1253;111700;-60